This is the latest recevied weather packets stored in our database for station/object EA5CBT-13. If no packets are shown the sender has not sent any weather packets the latest 10 day(s).
| Time | Temp. | Humidity | Pressure | Rain* | Wind** | Luminosity | Snow |
|---|---|---|---|---|---|---|---|
| 1778248537 | 21.11° C | 55% | 1010 hPa | 0 mm | - | - | - |
| 1778245557 | 21.11° C | 56% | 1010.4 hPa | 0 mm | - | - | - |
| 1778234737 | 16.11° C | 80% | 1012.1 hPa | 0 mm | - | - | - |
| 1778231759 | 17.78° C | 76% | 1012 hPa | 0.25 mm | - | - | - |
| 1778226350 | 16.11° C | 77% | 1011.3 hPa | 0 mm | - | - | - |
| 1778223371 | 17.22° C | 76% | 1010.3 hPa | 0 mm | - | - | - |
| 1778221570 | 16.11° C | 86% | 1010.2 hPa | 0 mm | - | - | - |
| 1778220941 | 14.44° C | 90% | 1010.1 hPa | 0 mm | - | - | - |
| 1778219725 | 13.33° C | 87% | 1009.9 hPa | 0 mm | - | - | - |
| 1778216749 | 12.78° C | 89% | 1009.5 hPa | 0 mm | - | - | - |
| 1778216141 | 12.78° C | 90% | 1009.3 hPa | 0 mm | - | - | - |
| 1778213162 | 12.78° C | 90% | 1009.3 hPa | 0 mm | - | - | - |
| 1778210731 | 12.78° C | 90% | 1009 hPa | 0 mm | - | - | - |
| 1778206539 | 12.78° C | 91% | 1009.6 hPa | 0 mm | - | - | - |
| 1778204170 | 13.33° C | 92% | 1009.8 hPa | 0 mm | - | - | - |
| 1778201739 | 13.33° C | 93% | 1010.3 hPa | 0 mm | - | - | - |
| 1778200525 | 13.33° C | 93% | 1010.6 hPa | 0 mm | - | - | - |
| 1778199916 | 13.33° C | 93% | 1010.9 hPa | 0 mm | - | - | - |
| 1778197547 | 13.33° C | 93% | 1011 hPa | 0 mm | - | - | - |
| 1778191532 | 13.89° C | 92% | 1011.1 hPa | 0 mm | - | - | - |
| 1778187352 | 14.44° C | 91% | 1010.7 hPa | 0 mm | - | - | - |
| 1778185570 | 14.44° C | 91% | 1010.6 hPa | 0 mm | - | - | - |
| 1778182550 | 15° C | 91% | 1010.1 hPa | 0 mm | - | - | - |
| 1778181374 | 15° C | 90% | 1009.6 hPa | 0 mm | - | - | - |
| 1778179549 | 15.56° C | 92% | 1009.2 hPa | 0 mm | - | - | - |
* Rain latest hour (hover to see other rain measurements)
** Current wind speed in m/s (hover to see current wind gust speed)